Time;durP1;ratioP1;P1;durP2;ratioP2;P2;SDS_P1;SDS_P2;PMS_P1;PMS_P2;Temp;Humidity;BMP_temperature;BMP_pressure;BME280_temperature;BME280_humidity;BME280_pressure;Samples;Min_cycle;Max_cycle;Signal;HPM_P1;HPM_P2
2021/11/03 00:02:08;;;;;;;36.42;21.55;;;7.50;99.90;;;;;;4995399;28;20493;-79
2021/11/03 00:04:36;;;;;;;27.85;19.77;;;7.50;99.90;;;;;;4961528;28;20042;-79
2021/11/03 00:07:02;;;;;;;28.52;19.75;;;7.50;99.90;;;;;;4977867;28;20050;-80
2021/11/03 00:09:30;;;;;;;29.27;20.27;;;7.70;99.90;;;;;;4978373;28;20039;-80
2021/11/03 00:11:55;;;;;;;37.35;21.95;;;7.50;99.90;;;;;;4977502;28;20045;-79
2021/11/03 00:14:21;;;;;;;31.55;20.67;;;7.50;99.90;;;;;;4978258;28;20473;-80
2021/11/03 00:16:46;;;;;;;31.92;20.80;;;7.50;99.90;;;;;;4977857;28;20499;-79
2021/11/03 00:19:12;;;;;;;37.28;22.55;;;7.40;99.90;;;;;;4964058;28;20141;-80
2021/11/03 00:21:40;;;;;;;33.83;20.33;;;7.50;99.90;;;;;;4958609;28;20137;-79
2021/11/03 00:24:06;;;;;;;35.35;21.30;;;7.40;99.90;;;;;;4958677;28;20436;-80
2021/11/03 00:26:32;;;;;;;35.08;20.40;;;7.40;99.90;;;;;;4958223;28;20045;-80
2021/11/03 00:28:58;;;;;;;37.25;20.67;;;7.40;99.90;;;;;;4941361;28;20035;-80
2021/11/03 00:31:24;;;;;;;36.85;21.98;;;7.30;99.90;;;;;;4958269;28;20042;-80
2021/11/03 00:33:49;;;;;;;32.38;19.98;;;7.40;99.90;;;;;;4957919;28;20070;-79
2021/11/03 00:36:16;;;;;;;30.88;20.15;;;7.40;99.90;;;;;;4958312;28;20423;-79
2021/11/03 00:38:42;;;;;;;30.23;19.70;;;7.40;99.90;;;;;;4957907;28;20053;-80
2021/11/03 00:41:07;;;;;;;32.47;19.65;;;7.40;99.90;;;;;;4958456;28;20134;-80
2021/11/03 00:43:34;;;;;;;26.00;18.33;;;7.40;99.90;;;;;;4956925;28;20477;-80
2021/11/03 00:46:00;;;;;;;30.33;19.00;;;7.40;99.90;;;;;;4957846;28;20467;-79
2021/11/03 00:48:25;;;;;;;27.63;17.67;;;7.40;99.90;;;;;;4957513;28;20125;-80
2021/11/03 00:50:56;;;;;;;29.17;17.48;;;7.40;99.90;;;;;;4957910;28;20050;-80
2021/11/03 00:53:22;;;;;;;27.58;16.77;;;7.40;99.90;;;;;;4957586;28;20030;-80
2021/11/03 00:55:48;;;;;;;30.35;18.05;;;7.40;99.90;;;;;;4958081;28;20078;-80
2021/11/03 00:58:14;;;;;;;29.98;16.73;;;7.50;99.90;;;;;;4956731;28;20047;-80
2021/11/03 01:00:39;;;;;;;31.05;18.08;;;7.50;99.90;;;;;;4957852;28;20047;-80
2021/11/03 01:03:06;;;;;;;26.75;16.98;;;7.70;99.90;;;;;;4941409;28;20149;-80
2021/11/03 01:05:32;;;;;;;28.48;17.63;;;7.40;99.90;;;;;;4957497;28;20043;-79
2021/11/03 01:07:57;;;;;;;28.50;17.42;;;7.50;99.90;;;;;;4941392;28;20050;-80
2021/11/03 01:10:24;;;;;;;28.42;17.17;;;7.50;99.90;;;;;;4957618;28;20505;-80
2021/11/03 01:12:51;;;;;;;29.83;17.52;;;7.50;99.90;;;;;;4940720;28;20166;-80
2021/11/03 01:15:21;;;;;;;31.08;18.02;;;7.50;99.90;;;;;;4957624;28;20042;-80
2021/11/03 01:17:47;;;;;;;29.98;17.10;;;7.50;99.90;;;;;;4956646;28;20078;-80
2021/11/03 01:20:14;;;;;;;26.65;16.50;;;7.50;99.90;;;;;;4941080;28;20047;-80
2021/11/03 01:22:41;;;;;;;28.95;17.48;;;7.50;99.90;;;;;;4957406;28;20055;-80
2021/11/03 01:25:08;;;;;;;27.20;16.25;;;7.50;99.90;;;;;;4941415;28;20474;-80
2021/11/03 01:27:34;;;;;;;24.25;16.13;;;7.50;99.90;;;;;;4956007;28;20458;-80
2021/11/03 01:29:59;;;;;;;27.10;16.27;;;7.50;99.90;;;;;;4957367;28;20058;-80
2021/11/03 01:32:25;;;;;;;25.33;15.65;;;7.40;99.90;;;;;;4941024;28;20068;-80
2021/11/03 01:34:51;;;;;;;29.65;15.65;;;7.50;99.90;;;;;;4957078;28;20042;-80
2021/11/03 01:37:16;;;;;;;26.55;15.15;;;7.60;99.90;;;;;;4940715;28;20138;-80
2021/11/03 01:39:42;;;;;;;27.75;15.77;;;7.60;99.90;;;;;;4957368;28;20138;-80
2021/11/03 01:42:07;;;;;;;24.73;14.85;;;7.60;99.90;;;;;;4955917;28;20458;-80
2021/11/03 01:44:34;;;;;;;24.35;14.95;;;7.60;99.90;;;;;;4957160;28;20069;-80
2021/11/03 01:47:37;;;;;;;25.15;14.38;;;7.70;99.90;;;;;;4956737;28;20053;-80
2021/11/03 01:50:10;;;;;;;24.35;14.80;;;7.60;99.90;;;;;;4956819;28;20039;-80
2021/11/03 01:52:36;;;;;;;25.75;14.50;;;7.50;99.90;;;;;;4956868;28;20145;-80
2021/11/03 01:55:02;;;;;;;27.75;15.50;;;7.50;99.90;;;;;;4956965;28;20142;-80
2021/11/03 01:57:32;;;;;;;23.98;13.98;;;7.50;99.90;;;;;;4955366;28;20079;-80
2021/11/03 02:00:06;;;;;;;22.90;14.65;;;7.60;99.90;;;;;;4940511;28;20050;-80
2021/11/03 02:02:33;;;;;;;22.50;14.20;;;7.60;99.90;;;;;;4956349;28;20038;-80
2021/11/03 02:04:59;;;;;;;24.83;14.07;;;7.50;99.90;;;;;;4955697;28;20557;-80
2021/11/03 02:07:27;;;;;;;22.42;13.43;;;7.60;99.90;;;;;;4956294;28;20050;-80
2021/11/03 02:09:53;;;;;;;19.77;12.75;;;7.50;99.90;;;;;;4940431;28;20126;-80
2021/11/03 02:12:24;;;;;;;25.20;14.05;;;7.50;99.90;;;;;;4939469;28;20149;-80
2021/11/03 02:14:51;;;;;;;19.88;12.43;;;7.50;99.90;;;;;;4940229;28;20043;-80
2021/11/03 02:17:19;;;;;;;22.20;12.98;;;7.50;99.90;;;;;;4940184;28;20129;-80
2021/11/03 02:19:45;;;;;;;19.98;12.20;;;7.50;99.90;;;;;;4939976;28;20047;-80
2021/11/03 02:22:19;;;;;;;21.17;12.23;;;7.60;99.90;;;;;;4955924;28;20069;-80
2021/11/03 02:24:54;;;;;;;17.48;11.90;;;7.40;99.90;;;;;;4940222;28;20130;-80
2021/11/03 02:27:22;;;;;;;21.98;12.52;;;7.40;99.90;;;;;;4954844;28;20238;-80
2021/11/03 02:29:49;;;;;;;20.30;11.75;;;7.40;99.90;;;;;;4955984;28;20038;-80
2021/11/03 02:32:22;;;;;;;16.65;10.73;;;7.40;99.90;;;;;;4973162;28;20035;-80
2021/11/03 02:34:47;;;;;;;15.32;9.20;;;7.40;99.90;;;;;;4956031;28;20055;-80
2021/11/03 02:37:28;;;;;;;14.55;9.63;;;7.40;99.90;;;;;;4955848;28;20069;-80
2021/11/03 02:39:56;;;;;;;16.38;9.32;;;7.40;99.90;;;;;;4956162;28;20074;-80
2021/11/03 02:42:24;;;;;;;14.05;8.88;;;7.50;99.90;;;;;;4939244;28;20356;-80
2021/11/03 02:44:53;;;;;;;12.23;8.57;;;7.40;99.90;;;;;;4956097;28;20098;-80
2021/11/03 02:47:19;;;;;;;13.60;8.32;;;7.30;99.90;;;;;;4946791;28;20042;-80
2021/11/03 02:49:44;;;;;;;18.65;8.68;;;7.40;99.90;;;;;;4959041;28;20038;-80
2021/11/03 02:52:20;;;;;;;11.20;7.55;;;7.40;99.90;;;;;;4958782;28;20522;-80
2021/11/03 02:54:45;;;;;;;13.98;7.57;;;7.30;99.90;;;;;;4974777;28;20038;-80
2021/11/03 02:57:11;;;;;;;12.23;7.50;;;7.40;99.90;;;;;;4957781;28;20412;-80
2021/11/03 02:59:37;;;;;;;13.00;7.50;;;7.40;99.90;;;;;;4975269;28;20042;-80
2021/11/03 03:02:05;;;;;;;11.73;8.13;;;7.30;99.90;;;;;;4974764;28;20567;-80
2021/11/03 03:09:15;;;;;;;;;;;;;;;;;;;;;
2021/11/03 03:12:17;;;;;;;8.32;6.30;;;7.30;99.90;;;;;;4895603;29;20600;-80
2021/11/03 03:15:50;;;;;;;12.15;7.28;;;7.20;99.90;;;;;;4912893;29;20114;-80
2021/11/03 03:18:57;;;;;;;9.32;6.53;;;6.70;99.90;;;;;;4912717;29;20060;-80
2021/11/03 03:22:35;;;;;;;12.85;7.03;;;7.30;99.90;;;;;;4895220;29;20052;-80
2021/11/03 04:02:17;;;;;;;10.82;6.32;;;7.00;99.90;;;;;;4894073;29;20457;-79
2021/11/03 04:04:44;;;;;;;12.30;6.10;;;6.90;99.90;;;;;;4897073;29;20069;-80
2021/11/03 04:07:09;;;;;;;8.57;6.10;;;7.00;99.90;;;;;;4950505;29;20052;-80
2021/11/03 04:09:35;;;;;;;7.97;5.90;;;7.00;99.90;;;;;;4984546;28;20055;-80
2021/11/03 04:12:01;;;;;;;7.40;5.82;;;6.90;99.90;;;;;;4973641;28;20042;-80
2021/11/03 04:14:27;;;;;;;6.88;5.65;;;6.90;99.90;;;;;;4990667;28;20035;-80
2021/11/03 04:16:53;;;;;;;9.95;6.00;;;6.90;99.90;;;;;;4990412;28;20042;-80
2021/11/03 04:19:22;;;;;;;7.43;5.55;;;7.00;99.90;;;;;;4990475;28;20039;-80
2021/11/03 04:21:47;;;;;;;11.68;6.13;;;6.90;99.90;;;;;;4974030;28;20047;-80
2021/11/03 04:24:13;;;;;;;10.07;6.10;;;6.90;99.90;;;;;;4990731;28;20053;-80
2021/11/03 04:26:44;;;;;;;8.27;5.55;;;6.90;99.90;;;;;;4990291;28;20042;-80
2021/11/03 04:29:10;;;;;;;7.65;5.47;;;6.80;99.90;;;;;;4993199;28;20085;-80
2021/11/03 04:31:36;;;;;;;7.82;5.47;;;6.80;99.90;;;;;;4978019;28;20521;-80
2021/11/03 04:34:02;;;;;;;7.25;4.93;;;6.80;99.90;;;;;;4993776;28;20141;-80
2021/11/03 04:36:27;;;;;;;6.63;5.35;;;6.70;99.90;;;;;;4994191;28;20065;-80
2021/11/03 04:38:57;;;;;;;9.93;5.53;;;6.70;99.90;;;;;;4993653;28;20417;-80
2021/11/03 04:41:24;;;;;;;7.30;5.40;;;6.70;99.90;;;;;;4994242;28;20392;-80
2021/11/03 04:43:49;;;;;;;8.43;5.72;;;6.70;99.90;;;;;;4993028;28;20402;-80
2021/11/03 04:46:16;;;;;;;6.82;5.68;;;6.60;99.90;;;;;;4993687;28;20049;-80
2021/11/03 04:48:43;;;;;;;6.10;4.88;;;6.50;99.90;;;;;;4993426;28;20053;-80
2021/11/03 04:51:08;;;;;;;6.28;5.22;;;6.50;99.90;;;;;;4993689;28;20120;-80
2021/11/03 04:53:34;;;;;;;6.30;5.13;;;6.40;99.90;;;;;;4977176;28;20130;-80
2021/11/03 04:56:04;;;;;;;9.35;4.80;;;6.40;99.90;;;;;;4993481;28;20082;-80
2021/11/03 04:58:31;;;;;;;8.50;5.15;;;6.30;99.90;;;;;;4992747;28;20046;-79
2021/11/03 05:00:57;;;;;;;6.97;5.32;;;6.20;99.90;;;;;;5009800;28;20042;-79
2021/11/03 05:03:23;;;;;;;6.03;5.07;;;6.20;99.90;;;;;;4976900;28;20525;-80
2021/11/03 05:06:06;;;;;;;6.30;5.05;;;6.20;99.90;;;;;;5007386;23;20062;-80
2021/11/03 05:12:29;;;;;;;5.80;4.60;;;6.10;99.90;;;;;;4975888;28;20528;-79
2021/11/03 05:15:59;;;;;;;7.88;5.40;;;5.90;99.90;;;;;;4974252;28;20407;-79
2021/11/03 05:22:25;;;;;;;10.65;5.88;;;5.60;99.90;;;;;;4895725;29;20207;-79
2021/11/03 05:25:15;;;;;;;8.07;5.88;;;5.80;99.90;;;;;;4880292;29;20057;-79
2021/11/03 05:28:33;;;;;;;7.35;5.95;;;5.50;99.90;;;;;;4826267;29;20523;-79
2021/11/03 05:31:36;;;;;;;11.25;5.90;;;6.10;99.90;;;;;;4774969;30;20058;-79
2021/11/03 05:42:06;;;;;;;10.45;6.82;;;6.00;99.90;;;;;;4665485;30;20053;-79
2021/11/03 05:44:37;;;;;;;17.73;6.93;;;5.60;99.90;;;;;;4665642;30;20562;-80
2021/11/03 05:47:04;;;;;;;8.18;6.15;;;5.60;99.90;;;;;;4693723;30;20061;-79
2021/11/03 05:49:33;;;;;;;7.75;6.03;;;5.60;99.90;;;;;;4731840;30;20060;-79
2021/11/03 05:52:01;;;;;;;8.90;7.13;;;5.60;99.90;;;;;;4749901;30;20058;-79
2021/11/03 05:54:28;;;;;;;9.43;7.55;;;5.60;99.90;;;;;;4762649;30;20067;-80
2021/11/03 05:56:56;;;;;;;10.98;7.65;;;5.70;99.90;;;;;;4734923;30;20051;-79
2021/11/03 05:59:22;;;;;;;10.80;7.45;;;5.60;99.90;;;;;;4763794;30;20052;-79
2021/11/03 06:01:48;;;;;;;9.43;7.45;;;5.60;99.90;;;;;;4752511;30;20060;-79
2021/11/03 06:04:14;;;;;;;10.10;7.43;;;5.60;99.90;;;;;;4766269;29;20046;-79
2021/11/03 06:06:40;;;;;;;8.90;7.22;;;5.50;99.90;;;;;;4896603;29;20095;-79
2021/11/03 06:09:10;;;;;;;12.65;7.93;;;5.50;99.90;;;;;;4958667;28;20467;-79
2021/11/03 06:11:39;;;;;;;10.45;8.05;;;5.50;99.90;;;;;;4956205;28;20491;-79
2021/11/03 06:14:06;;;;;;;10.88;8.18;;;5.50;99.90;;;;;;4971941;28;20144;-79
2021/11/03 06:16:31;;;;;;;11.65;8.90;;;5.40;99.90;;;;;;4956426;28;20430;-79
2021/11/03 06:18:57;;;;;;;14.32;9.15;;;5.40;99.90;;;;;;4972077;28;20035;-79
2021/11/03 06:21:23;;;;;;;11.88;8.80;;;5.50;99.90;;;;;;4972657;28;20069;-79
2021/11/03 06:23:49;;;;;;;13.75;9.38;;;5.40;99.90;;;;;;4972198;28;20038;-80
2021/11/03 06:26:18;;;;;;;11.45;9.38;;;5.40;99.90;;;;;;4956111;28;20074;-79
2021/11/03 06:28:44;;;;;;;17.05;10.95;;;5.40;99.90;;;;;;4970747;28;20046;-79
2021/11/03 06:31:10;;;;;;;13.68;10.45;;;5.40;99.90;;;;;;4956005;28;20126;-79
2021/11/03 06:33:37;;;;;;;14.55;10.80;;;5.50;99.90;;;;;;4971756;28;20046;-80
2021/11/03 06:36:05;;;;;;;17.27;11.63;;;5.40;99.90;;;;;;4956238;28;20042;-79
2021/11/03 06:38:31;;;;;;;18.33;12.70;;;5.40;99.90;;;;;;4939904;28;20125;-79
2021/11/03 06:40:58;;;;;;;22.35;12.35;;;5.60;99.90;;;;;;4972156;28;20186;-79
2021/11/03 06:43:24;;;;;;;17.15;12.77;;;5.40;99.90;;;;;;4971092;28;20046;-80
2021/11/03 06:45:49;;;;;;;19.05;13.02;;;5.40;99.90;;;;;;4949095;28;20048;-79
2021/11/03 06:48:15;;;;;;;21.38;14.05;;;5.40;99.90;;;;;;4977838;28;20050;-80
2021/11/03 06:50:41;;;;;;;19.85;14.38;;;5.40;99.90;;;;;;4978325;28;20182;-80
2021/11/03 06:53:10;;;;;;;21.88;15.00;;;5.40;99.90;;;;;;4978046;28;20060;-79
2021/11/03 06:55:37;;;;;;;22.92;15.27;;;5.40;99.90;;;;;;4994570;28;20046;-79
2021/11/03 06:58:04;;;;;;;19.67;14.82;;;5.60;99.90;;;;;;4983257;28;20485;-79
2021/11/03 07:00:33;;;;;;;25.65;15.70;;;5.40;99.90;;;;;;4974409;28;20054;-79
2021/11/03 07:03:00;;;;;;;25.17;16.55;;;5.40;99.90;;;;;;4958869;28;20407;-79
2021/11/03 07:09:16;;;;;;;28.77;17.48;;;5.50;99.90;;;;;;4893427;29;20139;-79
2021/11/03 07:12:25;;;;;;;24.53;16.50;;;5.50;99.90;;;;;;4890775;29;20192;-79
2021/11/03 07:15:28;;;;;;;30.17;17.10;;;5.40;99.90;;;;;;4842888;29;20056;-79
2021/11/03 07:22:25;;;;;;;;;;;;;;;;;;;;;
2021/11/03 07:25:17;;;;;;;26.88;18.40;;;5.70;99.90;;;;;;4873837;29;20060;-79
2021/11/03 07:28:38;;;;;;;31.67;19.60;;;5.60;99.90;;;;;;4843651;29;20454;-80
2021/11/03 07:31:51;;;;;;;31.35;19.80;;;6.50;99.90;;;;;;4856972;29;20458;-80
2021/11/03 07:38:52;;;;;;;32.80;20.83;;;5.50;99.90;;;;;;4801247;29;20086;-79
2021/11/03 07:41:51;;;;;;;46.70;21.33;;;5.30;99.90;;;;;;4801728;29;20423;-80
2021/11/03 07:45:01;;;;;;;;;;;;;;;;;;;;;
2021/11/03 07:52:02;;;;;;;;;;;;;;;;;;;;;
2021/11/03 07:55:04;;;;;;;;;;;5.60;99.90;;;;;;4876086;29;20103;-80
2021/11/03 08:01:41;;;;;;;;;;;;;;;;;;;;;
2021/11/03 08:05:28;;;;;;;99.72;20.17;;;5.50;99.90;;;;;;4841439;29;20105;-80
2021/11/03 08:08:33;;;;;;;180.13;22.33;;;5.30;99.90;;;;;;4862197;29;20061;-80
2021/11/03 08:11:59;;;;;;;117.53;21.85;;;5.40;99.90;;;;;;4849398;29;20121;-80
2021/11/03 08:15:08;;;;;;;31.00;18.35;;;5.40;99.90;;;;;;4913810;29;20165;-80
2021/11/03 08:21:04;;;;;;;27.90;20.67;;;6.10;99.90;;;;;;4919406;29;20518;-79
2021/11/03 08:23:53;;;;;;;173.13;21.00;;;5.40;99.90;;;;;;4919155;29;20058;-80
2021/11/03 08:27:40;;;;;;;82.15;20.70;;;5.40;99.90;;;;;;4859307;29;20194;-80
2021/11/03 08:31:00;;;;;;;120.22;20.15;;;5.40;99.90;;;;;;4837437;29;20125;-79
2021/11/03 08:37:23;;;;;;;26.27;19.38;;;5.40;99.90;;;;;;4760671;30;20054;-79
2021/11/03 08:40:30;;;;;;;49.42;20.98;;;5.50;99.90;;;;;;4751618;30;20070;-80
2021/11/03 08:43:30;;;;;;;63.97;20.35;;;5.50;99.90;;;;;;4747953;30;20074;-80
2021/11/03 08:49:55;;;;;;;30.77;22.42;;;6.20;99.90;;;;;;4751153;30;20080;-79
2021/11/03 08:53:06;;;;;;;69.25;21.58;;;5.50;99.90;;;;;;4735998;30;20117;-80
2021/11/03 08:59:58;;;;;;;51.90;23.00;;;5.50;99.90;;;;;;4735308;30;20386;-80
2021/11/03 09:06:42;;;;;;;64.93;23.98;;;5.80;99.90;;;;;;4804162;29;20077;-80
2021/11/03 09:09:14;;;;;;;79.93;24.48;;;6.00;99.90;;;;;;4771258;30;20055;-80
2021/11/03 09:11:39;;;;;;;52.97;24.58;;;6.10;99.90;;;;;;4771375;30;20055;-79
2021/11/03 09:14:07;;;;;;;62.05;25.45;;;6.10;99.90;;;;;;4773415;29;20425;-80
2021/11/03 09:16:34;;;;;;;58.15;25.05;;;6.80;99.90;;;;;;4822245;29;20057;-80
2021/11/03 09:19:00;;;;;;;52.33;27.52;;;6.50;99.90;;;;;;4828655;29;20140;-80
2021/11/03 09:21:26;;;;;;;61.72;26.67;;;6.40;99.90;;;;;;4859303;29;20489;-79
2021/11/03 09:23:52;;;;;;;108.15;25.67;;;6.40;99.90;;;;;;4843642;29;20193;-80
2021/11/03 09:26:21;;;;;;;50.75;26.60;;;6.40;99.90;;;;;;4880497;29;20604;-80
2021/11/03 09:28:47;;;;;;;45.30;27.30;;;6.50;99.90;;;;;;4929832;29;20166;-79
2021/11/03 09:31:13;;;;;;;51.20;27.92;;;6.60;99.90;;;;;;4899357;29;20040;-79
2021/11/03 09:33:40;;;;;;;72.35;27.45;;;6.70;99.90;;;;;;4920293;29;20054;-80
2021/11/03 09:36:10;;;;;;;118.75;26.77;;;6.80;99.90;;;;;;4938138;29;20047;-80
2021/11/03 09:38:37;;;;;;;94.18;28.63;;;6.90;99.90;;;;;;4937977;29;20078;-80
2021/11/03 09:41:12;;;;;;;66.90;27.48;;;6.90;99.90;;;;;;4938475;29;20043;-80
2021/11/03 09:43:41;;;;;;;77.43;26.90;;;6.90;99.90;;;;;;4937062;29;20044;-80
2021/11/03 09:46:36;;;;;;;63.70;26.50;;;6.90;99.90;;;;;;4945958;28;20122;-80
2021/11/03 09:49:19;;;;;;;139.53;24.87;;;7.00;99.90;;;;;;4921737;29;20093;-80
2021/11/03 09:51:57;;;;;;;162.48;25.42;;;6.90;99.90;;;;;;4938082;29;20094;-79
2021/11/03 09:54:26;;;;;;;118.95;26.75;;;6.90;99.90;;;;;;4937843;29;20126;-79
2021/11/03 09:56:56;;;;;;;97.28;27.42;;;6.90;99.90;;;;;;4937487;29;20047;-80
2021/11/03 09:59:32;;;;;;;198.57;27.48;;;7.00;99.90;;;;;;4937785;29;20047;-80
2021/11/03 10:02:04;;;;;;;95.43;26.52;;;6.90;99.90;;;;;;4937667;29;20058;-79
2021/11/03 10:04:35;;;;;;;41.42;26.00;;;7.00;99.90;;;;;;4937722;29;20054;-80
2021/11/03 10:07:19;;;;;;;145.40;27.58;;;7.00;99.90;;;;;;4957152;28;20506;-79
2021/11/03 10:09:45;;;;;;;63.87;23.83;;;7.00;99.90;;;;;;4956965;28;20054;-80
2021/11/03 10:12:19;;;;;;;141.95;28.83;;;7.00;99.90;;;;;;4955759;28;20118;-80
2021/11/03 10:14:46;;;;;;;46.40;24.52;;;7.00;99.90;;;;;;4956817;28;20047;-80
2021/11/03 10:17:19;;;;;;;38.67;23.65;;;7.00;99.90;;;;;;4956634;28;20061;-80
2021/11/03 10:19:45;;;;;;;39.67;23.75;;;7.00;99.90;;;;;;4956499;28;20065;-80
2021/11/03 10:22:24;;;;;;;73.00;24.65;;;6.90;99.90;;;;;;4956304;28;20039;-80
2021/11/03 10:25:01;;;;;;;45.13;23.30;;;6.90;99.90;;;;;;4956074;28;20122;-80
2021/11/03 10:27:27;;;;;;;35.90;24.75;;;6.90;99.90;;;;;;4974439;28;20042;-80
2021/11/03 10:30:15;;;;;;;90.13;24.85;;;7.00;99.90;;;;;;4959761;28;20093;-80
2021/11/03 10:32:43;;;;;;;48.95;25.38;;;7.10;99.90;;;;;;4975421;28;20069;-79
2021/11/03 10:35:39;;;;;;;59.78;24.15;;;7.30;99.90;;;;;;4975594;28;20042;-80
2021/11/03 10:38:18;;;;;;;50.78;25.05;;;7.40;99.90;;;;;;4975147;28;20050;-80
2021/11/03 10:41:05;;;;;;;51.55;25.67;;;7.50;99.90;;;;;;4975482;28;20061;-80
2021/11/03 10:43:42;;;;;;;47.20;21.30;;;8.00;99.90;;;;;;4974243;28;20125;-80
2021/11/03 10:46:27;;;;;;;31.67;22.15;;;7.80;99.90;;;;;;4991412;28;20382;-80
2021/11/03 10:49:08;;;;;;;30.67;22.63;;;7.70;99.90;;;;;;4955769;28;20050;-80
2021/11/03 10:51:40;;;;;;;29.45;22.00;;;7.80;99.90;;;;;;4939304;28;20046;-80
2021/11/03 10:54:37;;;;;;;30.98;22.50;;;7.70;99.90;;;;;;4955716;28;20046;-80
2021/11/03 10:57:40;;;;;;;56.67;23.13;;;7.80;99.90;;;;;;4954622;28;20039;-79
2021/11/03 11:00:24;;;;;;;44.38;21.98;;;7.90;99.90;;;;;;4955907;28;20043;-79
2021/11/03 11:03:14;;;;;;;32.80;22.27;;;8.00;99.90;;;;;;4936967;28;20486;-81
2021/11/03 11:06:13;;;;;;;37.80;23.50;;;8.10;99.90;;;;;;5031531;23;20054;-81
2021/11/03 11:09:32;;;;;;;30.92;22.75;;;7.90;99.90;;;;;;4899632;29;20052;-80
2021/11/03 11:13:01;;;;;;;29.00;20.83;;;8.30;99.90;;;;;;4897584;29;20167;-81
2021/11/03 11:16:30;;;;;;;28.02;21.08;;;8.30;99.90;;;;;;4875506;29;20049;-80
2021/11/03 11:19:30;;;;;;;28.65;21.75;;;8.50;99.90;;;;;;4875339;29;20109;-81
2021/11/03 11:22:52;;;;;;;30.98;22.13;;;8.30;99.90;;;;;;4876024;29;20072;-81
2021/11/03 11:26:02;;;;;;;31.08;22.40;;;8.30;99.90;;;;;;4875920;29;20056;-81
2021/11/03 11:32:52;;;;;;;;;;;;;;;;;;;;;
2021/11/03 11:39:47;;;;;;;32.83;22.73;;;8.20;99.90;;;;;;4880427;29;20124;-81
2021/11/03 11:43:00;;;;;;;29.70;22.45;;;8.40;99.90;;;;;;4880011;29;20052;-81
2021/11/03 11:45:47;;;;;;;26.58;20.27;;;8.50;99.90;;;;;;4874148;29;20044;-81
2021/11/03 11:48:59;;;;;;;31.20;21.83;;;8.60;99.90;;;;;;4877445;29;20084;-81
2021/11/03 11:52:16;;;;;;;29.17;22.00;;;8.60;99.90;;;;;;4893291;29;20440;-80
2021/11/03 11:55:46;;;;;;;27.88;21.48;;;8.70;99.90;;;;;;4872685;29;20452;-81
2021/11/03 11:58:50;;;;;;;28.77;21.90;;;8.90;99.90;;;;;;4855159;29;20053;-81
2021/11/03 12:02:29;;;;;;;28.13;21.55;;;9.00;99.90;;;;;;4829194;29;20060;-81
2021/11/03 12:10:59;;;;;;;31.45;23.50;;;9.00;99.90;;;;;;3061321;26;20043;-81
2021/11/03 12:13:51;;;;;;;29.02;22.00;;;9.00;99.90;;;;;;4977869;28;20060;-80
2021/11/03 12:16:32;;;;;;;24.92;19.80;;;9.20;99.90;;;;;;4954908;29;20483;-79
2021/11/03 12:19:01;;;;;;;28.58;20.60;;;9.10;99.90;;;;;;4938695;29;20451;-79
2021/11/03 12:21:26;;;;;;;26.85;20.90;;;9.10;99.90;;;;;;4938622;29;20051;-79
2021/11/03 12:23:55;;;;;;;27.55;21.48;;;9.10;99.90;;;;;;4938509;29;20050;-80
2021/11/03 12:26:27;;;;;;;29.58;21.80;;;9.20;99.90;;;;;;4938383;29;20051;-80
2021/11/03 12:29:00;;;;;;;25.80;19.73;;;9.20;99.90;;;;;;4953999;29;20552;-79
2021/11/03 12:31:28;;;;;;;24.60;19.00;;;9.00;99.90;;;;;;4938539;29;20035;-80
2021/11/03 12:34:14;;;;;;;25.35;19.77;;;8.90;99.90;;;;;;4954602;29;20066;-80
2021/11/03 12:36:48;;;;;;;29.65;21.73;;;8.90;99.90;;;;;;4922577;29;20047;-80
2021/11/03 12:39:29;;;;;;;31.52;22.00;;;8.80;99.90;;;;;;4954843;28;20102;-80
2021/11/03 12:42:02;;;;;;;28.50;22.25;;;8.80;99.90;;;;;;4938590;29;20043;-79
2021/11/03 12:44:31;;;;;;;30.13;22.58;;;8.90;99.90;;;;;;4937551;29;20047;-80
2021/11/03 12:46:57;;;;;;;29.50;22.27;;;8.90;99.90;;;;;;4949510;29;20063;-80
2021/11/03 12:49:25;;;;;;;29.52;22.52;;;9.00;99.90;;;;;;4937726;29;20145;-79
2021/11/03 12:51:58;;;;;;;26.38;20.67;;;9.20;99.90;;;;;;4938287;29;20396;-80
2021/11/03 12:54:27;;;;;;;26.33;19.88;;;9.30;99.90;;;;;;4957573;28;20081;-79
2021/11/03 12:57:07;;;;;;;23.25;19.25;;;9.40;99.90;;;;;;4955192;29;20050;-80
2021/11/03 12:59:38;;;;;;;22.23;18.45;;;9.20;99.90;;;;;;4954773;28;20086;-80
2021/11/03 13:02:16;;;;;;;25.30;19.50;;;9.10;99.90;;;;;;4958336;28;20138;-80
2021/11/03 13:04:49;;;;;;;26.30;18.58;;;9.20;99.90;;;;;;4970839;28;20047;-79
2021/11/03 13:07:18;;;;;;;22.17;18.05;;;9.00;99.90;;;;;;4939044;29;20043;-79
2021/11/03 13:09:52;;;;;;;25.00;18.52;;;9.00;99.90;;;;;;4938960;29;20110;-80
2021/11/03 13:12:34;;;;;;;23.85;18.40;;;8.90;99.90;;;;;;4934656;29;20455;-80
2021/11/03 13:15:22;;;;;;;25.60;20.05;;;8.80;99.90;;;;;;4976004;28;20073;-79
2021/11/03 13:17:53;;;;;;;28.42;21.60;;;8.80;99.90;;;;;;4973952;28;20086;-80
2021/11/03 13:20:24;;;;;;;26.85;20.77;;;8.80;99.90;;;;;;4975319;28;20043;-79
2021/11/03 13:22:50;;;;;;;29.08;21.20;;;8.80;99.90;;;;;;4974371;28;20057;-79
2021/11/03 13:25:24;;;;;;;26.92;19.58;;;8.80;99.90;;;;;;4973681;28;20034;-80
2021/11/03 13:27:51;;;;;;;23.65;18.83;;;8.90;99.90;;;;;;4957710;28;20150;-80
2021/11/03 13:30:30;;;;;;;28.10;20.25;;;8.80;99.90;;;;;;4956855;28;20051;-80
2021/11/03 13:33:02;;;;;;;26.58;19.75;;;8.80;99.90;;;;;;4966403;28;20035;-79
2021/11/03 13:35:35;;;;;;;27.67;21.02;;;8.70;99.90;;;;;;4989557;28;20129;-80
2021/11/03 13:38:03;;;;;;;28.50;21.40;;;8.80;99.90;;;;;;4957607;28;20125;-80
2021/11/03 13:40:38;;;;;;;27.58;20.38;;;8.80;99.90;;;;;;4957400;28;20043;-79
2021/11/03 13:43:18;;;;;;;29.00;21.98;;;8.80;99.90;;;;;;4941814;28;20039;-79
2021/11/03 13:46:22;;;;;;;30.75;23.23;;;8.80;99.90;;;;;;4962228;28;20070;-79
2021/11/03 13:49:11;;;;;;;29.35;21.02;;;8.90;99.90;;;;;;4992426;28;20054;-80
2021/11/03 13:51:52;;;;;;;28.52;20.92;;;9.00;99.90;;;;;;4960756;28;20163;-80
2021/11/03 13:54:23;;;;;;;26.70;21.00;;;8.90;99.90;;;;;;5009225;28;20093;-79
2021/11/03 13:56:58;;;;;;;26.40;20.58;;;9.00;99.90;;;;;;4976642;28;20050;-80
2021/11/03 13:59:33;;;;;;;26.85;21.02;;;8.90;99.90;;;;;;5007411;28;20085;-80
2021/11/03 14:02:19;;;;;;;29.70;22.08;;;8.90;99.90;;;;;;4993072;28;20112;-79
2021/11/03 14:04:48;;;;;;;30.02;20.73;;;9.00;99.90;;;;;;5001110;28;20426;-79
2021/11/03 14:07:26;;;;;;;29.65;21.75;;;8.80;99.90;;;;;;4957171;28;20045;-79
2021/11/03 14:09:53;;;;;;;;;;;8.70;99.90;;;;;;4957308;28;20047;-80
2021/11/03 14:12:19;;;;;;;30.13;22.00;;;8.80;99.90;;;;;;4988950;28;19932;-79
2021/11/03 14:14:46;;;;;;;29.15;21.95;;;8.70;99.90;;;;;;4972274;28;20046;-79
2021/11/03 14:17:20;;;;;;;31.95;22.13;;;8.80;99.90;;;;;;4956244;28;20053;-80
2021/11/03 14:20:00;;;;;;;32.55;22.90;;;8.70;99.90;;;;;;4956421;28;20110;-80
2021/11/03 14:37:40;;;;;;;29.85;21.73;;;8.70;99.90;;;;;;6253558;23;20442;-80
2021/11/03 14:40:49;;;;;;;32.40;21.55;;;8.50;99.90;;;;;;6110379;23;20036;-80
2021/11/03 14:43:42;;;;;;;32.78;22.60;;;8.50;99.90;;;;;;6129046;23;20021;-80
2021/11/03 14:46:41;;;;;;;31.38;22.60;;;8.50;99.90;;;;;;6082257;23;20017;-80
2021/11/03 14:53:44;;;;;;;28.25;20.65;;;8.40;99.90;;;;;;6128727;23;20081;-80
2021/11/03 14:56:29;;;;;;;29.48;21.15;;;8.40;99.90;;;;;;6076724;23;20020;-80
2021/11/03 14:59:33;;;;;;;32.33;21.85;;;8.10;99.90;;;;;;6091547;23;20314;-80
2021/11/03 15:16:51;;;;;;;31.52;22.90;;;8.30;99.90;;;;;;6018734;23;20422;-80
2021/11/03 15:19:49;;;;;;;34.03;24.00;;;8.30;99.90;;;;;;6018614;23;20501;-80
2021/11/03 15:23:08;;;;;;;31.95;22.42;;;8.20;99.90;;;;;;6018476;23;20474;-80
2021/11/03 15:26:30;;;;;;;32.45;22.65;;;8.70;99.90;;;;;;6063941;23;20098;-80
2021/11/03 15:29:19;;;;;;;35.75;23.05;;;7.70;99.90;;;;;;6020887;23;20075;-80
2021/11/03 15:32:11;;;;;;;29.75;21.48;;;8.10;99.90;;;;;;5985366;23;20022;-80
2021/11/03 15:35:18;;;;;;;30.05;22.23;;;8.50;99.90;;;;;;5935639;23;20562;-80
2021/11/03 15:37:57;;;;;;;34.22;23.42;;;8.30;99.90;;;;;;5964179;24;20057;-81
2021/11/03 15:40:45;;;;;;;35.45;23.63;;;7.80;99.90;;;;;;5951987;23;20055;-80
2021/11/03 15:43:33;;;;;;;41.00;23.58;;;7.90;99.90;;;;;;5951352;24;20016;-80
2021/11/03 15:46:54;;;;;;;46.45;22.85;;;7.90;99.90;;;;;;5952450;23;20021;-81
2021/11/03 15:49:59;;;;;;;35.25;24.27;;;7.10;99.90;;;;;;5952034;24;20017;-80
2021/11/03 15:52:25;;;;;;;39.22;24.20;;;7.80;99.90;;;;;;5952254;24;20022;-80
2021/11/03 15:54:53;;;;;;;34.33;24.42;;;7.90;99.90;;;;;;5984069;23;20024;-81
2021/11/03 15:57:20;;;;;;;32.83;24.25;;;7.70;99.90;;;;;;6008093;23;20019;-81
2021/11/03 15:59:46;;;;;;;39.22;24.45;;;7.70;99.90;;;;;;6007207;23;20445;-80
2021/11/03 16:02:22;;;;;;;34.00;23.88;;;7.60;99.90;;;;;;6022872;23;20047;-80
2021/11/03 16:04:50;;;;;;;39.63;25.33;;;7.60;99.90;;;;;;6040668;23;20011;-80
2021/11/03 16:07:18;;;;;;;36.47;24.95;;;7.60;99.90;;;;;;6041213;23;20090;-80
2021/11/03 16:09:44;;;;;;;39.47;24.13;;;7.50;99.90;;;;;;6040998;23;20415;-80